logo
Search for airport 
image banner adimage banner adimage banner ad
image banner ad

FAPK - Prieska

Located in Prieska, South Africa

ICAO - FAPK, IATA - PRK

Data provided by Airmate  

General information

Coordinates: S29°41'1" E22°46'14"
Elevation is 3104 feet MSL.
 
View others Airports in Northern Cape

Operational data

Special qualification required
Current time UTC:
Current local time:
Weather at : - ( 0 km )
METAR: KQFX 230410Z AUTO 17004KT 9999 CLR 22/07 A2985 RMK A02 TSNO
View NOTAMs / SUP AIP / TFR affecting this airport [VIEW]
Communications frequencies: [VIEW]

Runways:

RWY identifierQFULength (ft)Width (ft)SurfaceLDA (ft)
16524966UNK
34524966UNK
1300UNK
3100UNK

Airport contact information

Address: Prieska South Africa

Satellite view of FAPK